Saint-Lambert, Canada
Current Conditions -  °F | °C
As of 5:00 AM on Saturday 25 Oct 2014 (Local Time) from CYHU Reporting Station
Clear Clear  
Wind Chill: 40°   Ceiling: Unl
Heat Index: 45°   Visibility: 9mi
Dew Point: 41°   Wind: 9mph
Humidity: 87%   Direction: 250°WSW
Pressure: 29.74"   Gusts: NA
Location:  45.48°N, 73.5°W
Report Text: CYHU 250900Z AUTO 25008KT 9SM CLR 07/05 A2974 RMK SLP070
Loading
Personal Weather Stations






























Interactive Weather Map
Tropical Storm Tracking
New forecast layout! Learn more

10-Day Weather Forecast

Advertisements
Track Severe Weather on mobile